This is the latest recevied weather packets stored in our database for station/object N8QQ. If no packets are shown the sender has not sent any weather packets the latest 10 day(s).
| Time | Temp. | Humidity | Pressure | Rain* | Wind** | Luminosity | Snow |
|---|---|---|---|---|---|---|---|
| 1777460428 | 13.33° C | 99% | 1005.8 hPa | 0 mm | - | - | - |
| 1777456231 | 13.89° C | 99% | 1005.3 hPa | 0 mm | - | - | - |
| 1777455020 | 13.89° C | 99% | 1005.3 hPa | 0 mm | - | - | - |
| 1777453223 | 13.89° C | 99% | 1005.4 hPa | 0 mm | - | - | - |
| 1777450817 | 14.44° C | 99% | 1005.6 hPa | 0 mm | - | - | - |
| 1777446024 | 15° C | 99% | 1006.7 hPa | 0 mm | - | - | - |
| 1777433452 | 16.67° C | 88% | 1007.4 hPa | 0 mm | - | - | - |
| 1777432833 | 16.67° C | 85% | 1007.9 hPa | 0 mm | - | - | - |
| 1777432218 | 16.67° C | 84% | 1008.2 hPa | 0 mm | - | - | - |
| 1777431620 | 17.22° C | 83% | 1008.5 hPa | 0 mm | - | - | - |
| 1777430426 | 17.22° C | 83% | 1008.8 hPa | 0 mm | - | - | - |
| 1777426816 | 17.22° C | 84% | 1008.2 hPa | 0 mm | - | - | - |
| 1777425019 | 17.78° C | 79% | 1008.1 hPa | 0 mm | - | - | - |
| 1777417223 | 22.22° C | 64% | 1007.5 hPa | 0 mm | - | - | - |
| 1777412430 | 23.89° C | 60% | 1007.9 hPa | 0 mm | - | - | - |
| 1777411835 | 23.33° C | 62% | 1007.9 hPa | 0 mm | - | - | - |
| 1777410024 | 24.44° C | 61% | 1008.2 hPa | 0 mm | - | - | - |
| 1777408830 | 23.89° C | 64% | 1008.7 hPa | 0 mm | - | - | - |
| 1777408216 | 24.44° C | 63% | 1008.9 hPa | 0 mm | - | - | - |
| 1777403444 | 23.33° C | 71% | 1008.8 hPa | 0 mm | - | - | - |
| 1777397418 | 21.67° C | 80% | 1009.8 hPa | 0 mm | - | - | - |
| 1777387832 | 17.78° C | 95% | 1009.2 hPa | 0 mm | - | - | - |
| 1777387230 | 17.78° C | 97% | 1009.4 hPa | 0 mm | - | - | - |
| 1777378820 | 15.56° C | 99% | 1007.2 hPa | 0 mm | - | - | - |
| 1777376427 | 15° C | 99% | 1006.9 hPa | 0 mm | - | - | - |
* Rain latest hour (hover to see other rain measurements)
** Current wind speed in m/s (hover to see current wind gust speed)